Time;durP1;ratioP1;P1;durP2;ratioP2;P2;SDS_P1;SDS_P2;PMS_P1;PMS_P2;Temp;Humidity;BMP_temperature;BMP_pressure;BME280_temperature;BME280_humidity;BME280_pressure;Samples;Min_cycle;Max_cycle;Signal;HPM_P1;HPM_P2
2021/09/15 00:00:02;;;;;;;;;;;25.20;50.70;;;;;;491589;240;980;-68
2021/09/15 00:02:04;;;;;;;;;;;25.30;50.60;;;;;;491613;240;1042;-68
2021/09/15 00:04:05;;;;;;;;;;;25.20;50.70;;;;;;491687;240;2195;-68
2021/09/15 00:06:06;;;;;;;;;;;25.30;50.70;;;;;;491605;240;1199;-69
2021/09/15 00:08:08;;;;;;;;;;;25.30;50.70;;;;;;491579;240;1152;-68
2021/09/15 00:10:09;;;;;;;;;;;25.30;50.60;;;;;;491693;240;1140;-68
2021/09/15 00:12:11;;;;;;;;;;;25.30;50.70;;;;;;491577;240;1118;-68
2021/09/15 00:14:12;;;;;;;;;;;25.30;50.60;;;;;;491620;240;1000;-68
2021/09/15 00:16:13;;;;;;;;;;;25.40;50.50;;;;;;491611;240;1176;-68
2021/09/15 00:18:14;;;;;;;;;;;25.30;50.60;;;;;;491627;240;1136;-68
2021/09/15 00:20:16;;;;;;;;;;;25.30;50.60;;;;;;491636;240;1054;-68
2021/09/15 00:22:17;;;;;;;;;;;25.30;50.50;;;;;;491534;240;1332;-69
2021/09/15 00:24:18;;;;;;;;;;;25.20;50.70;;;;;;491612;240;2140;-68
2021/09/15 00:26:20;;;;;;;;;;;25.30;50.60;;;;;;491444;240;1208;-68
2021/09/15 00:28:21;;;;;;;;;;;25.30;50.50;;;;;;491635;240;1186;-69
2021/09/15 00:30:22;;;;;;;;;;;25.20;50.60;;;;;;491551;240;1065;-68
2021/09/15 00:32:24;;;;;;;;;;;25.20;50.80;;;;;;491464;240;1152;-68
2021/09/15 00:34:30;;;;;;;;;;;25.20;50.70;;;;;;491687;240;961;-68
2021/09/15 00:36:27;;;;;;;;;;;25.20;50.60;;;;;;491656;240;1347;-68
2021/09/15 00:38:28;;;;;;;;;;;25.20;50.60;;;;;;491554;240;1055;-68
2021/09/15 00:40:29;;;;;;;;;;;25.30;50.60;;;;;;491576;240;1125;-68
2021/09/15 00:42:31;;;;;;;;;;;25.30;50.50;;;;;;491515;240;1233;-68
2021/09/15 00:44:32;;;;;;;;;;;25.30;50.60;;;;;;491558;240;2192;-69
2021/09/15 00:46:33;;;;;;;;;;;25.30;50.60;;;;;;491509;240;1116;-68
2021/09/15 00:48:35;;;;;;;;;;;25.30;50.60;;;;;;491545;240;1054;-68
2021/09/15 00:50:36;;;;;;;;;;;25.20;50.60;;;;;;491593;240;964;-68
2021/09/15 00:52:37;;;;;;;;;;;25.20;50.70;;;;;;491637;240;1171;-68
2021/09/15 00:54:39;;;;;;;;;;;25.30;50.50;;;;;;491595;240;1243;-69
2021/09/15 00:56:40;;;;;;;;;;;25.20;50.60;;;;;;491528;240;1167;-69
2021/09/15 00:58:41;;;;;;;;;;;25.30;50.60;;;;;;491601;240;1013;-69
2021/09/15 01:00:43;;;;;;;;;;;25.30;50.50;;;;;;491545;240;1205;-68
2021/09/15 01:02:44;;;;;;;;;;;25.30;50.50;;;;;;491579;240;1147;-68
2021/09/15 01:04:45;;;;;;;;;;;25.30;50.60;;;;;;491640;240;2121;-68
2021/09/15 01:06:47;;;;;;;;;;;25.30;50.30;;;;;;491494;240;1225;-68
2021/09/15 01:08:48;;;;;;;;;;;25.40;50.40;;;;;;491613;240;1016;-68
2021/09/15 01:10:49;;;;;;;;;;;25.20;50.70;;;;;;491541;240;1182;-68
2021/09/15 01:12:51;;;;;;;;;;;25.20;50.70;;;;;;491571;240;1057;-68
2021/09/15 01:14:52;;;;;;;;;;;25.20;50.50;;;;;;491603;240;1032;-68
2021/09/15 01:16:53;;;;;;;;;;;25.20;50.50;;;;;;491471;240;1223;-68
2021/09/15 01:18:54;;;;;;;;;;;25.20;50.60;;;;;;491595;240;964;-69
2021/09/15 01:20:56;;;;;;;;;;;25.20;50.50;;;;;;491542;240;1266;-68
2021/09/15 01:22:57;;;;;;;;;;;25.20;50.60;;;;;;491661;240;1181;-68
2021/09/15 01:24:58;;;;;;;;;;;25.20;50.60;;;;;;491722;240;2156;-68
2021/09/15 01:27:00;;;;;;;;;;;25.20;50.50;;;;;;491575;240;1280;-68
2021/09/15 01:29:01;;;;;;;;;;;25.30;50.40;;;;;;491616;240;957;-68
2021/09/15 01:31:02;;;;;;;;;;;25.30;50.40;;;;;;491564;240;1115;-68
2021/09/15 01:33:04;;;;;;;;;;;25.30;50.40;;;;;;491582;240;1104;-68
2021/09/15 01:35:05;;;;;;;;;;;25.30;50.40;;;;;;491608;240;929;-68
2021/09/15 01:37:06;;;;;;;;;;;25.30;50.60;;;;;;491492;240;1214;-68
2021/09/15 01:39:08;;;;;;;;;;;25.30;50.60;;;;;;491542;240;1115;-68
2021/09/15 01:41:09;;;;;;;;;;;25.40;50.40;;;;;;491534;240;1317;-68
2021/09/15 01:43:10;;;;;;;;;;;25.40;50.40;;;;;;491689;240;1030;-68
2021/09/15 01:45:12;;;;;;;;;;;25.40;50.30;;;;;;491556;240;2180;-69
2021/09/15 01:47:13;;;;;;;;;;;25.40;50.30;;;;;;491572;240;1175;-68
2021/09/15 01:49:14;;;;;;;;;;;25.40;50.30;;;;;;491612;240;1126;-68
2021/09/15 01:51:16;;;;;;;;;;;25.40;50.30;;;;;;491521;240;1205;-68
2021/09/15 01:53:17;;;;;;;;;;;25.30;50.40;;;;;;491591;240;1189;-68
2021/09/15 01:55:19;;;;;;;;;;;25.40;50.30;;;;;;491666;240;1172;-68
2021/09/15 01:57:20;;;;;;;;;;;25.30;50.30;;;;;;491599;240;1072;-68
2021/09/15 01:59:21;;;;;;;;;;;25.40;50.30;;;;;;491682;240;993;-68
2021/09/15 02:01:23;;;;;;;;;;;25.20;50.50;;;;;;491618;240;1137;-68
2021/09/15 02:03:24;;;;;;;;;;;25.20;50.40;;;;;;491531;240;1000;-68
2021/09/15 02:05:25;;;;;;;;;;;25.20;50.50;;;;;;491621;240;2173;-69
2021/09/15 02:07:27;;;;;;;;;;;25.20;50.40;;;;;;491636;240;966;-68
2021/09/15 02:09:28;;;;;;;;;;;25.20;50.30;;;;;;491631;240;1062;-69
2021/09/15 02:11:29;;;;;;;;;;;25.20;50.50;;;;;;491586;240;1161;-68
2021/09/15 02:13:31;;;;;;;;;;;25.20;50.40;;;;;;491511;240;1183;-69
2021/09/15 02:15:32;;;;;;;;;;;25.30;50.40;;;;;;491525;240;964;-68
2021/09/15 02:17:33;;;;;;;;;;;25.20;50.30;;;;;;491461;240;1017;-68
2021/09/15 02:19:36;;;;;;;;;;;25.20;50.40;;;;;;491547;240;959;-68
2021/09/15 02:21:37;;;;;;;;;;;25.20;50.40;;;;;;491514;240;1112;-68
2021/09/15 02:23:38;;;;;;;;;;;25.30;50.30;;;;;;491604;240;953;-68
2021/09/15 02:25:40;;;;;;;;;;;25.20;50.30;;;;;;491638;240;2108;-69
2021/09/15 02:27:41;;;;;;;;;;;25.20;50.40;;;;;;491480;240;1108;-68
2021/09/15 02:29:42;;;;;;;;;;;25.20;50.40;;;;;;491613;240;960;-68
2021/09/15 02:31:44;;;;;;;;;;;25.20;50.50;;;;;;491549;240;1174;-69
2021/09/15 02:33:45;;;;;;;;;;;25.10;50.50;;;;;;491535;240;1006;-68
2021/09/15 02:35:46;;;;;;;;;;;25.20;50.40;;;;;;491570;240;942;-68
2021/09/15 02:37:48;;;;;;;;;;;25.20;50.30;;;;;;491590;240;1053;-68
2021/09/15 02:39:49;;;;;;;;;;;25.20;50.30;;;;;;491628;240;1067;-68
2021/09/15 02:41:50;;;;;;;;;;;25.20;50.30;;;;;;491550;240;1193;-68
2021/09/15 02:43:52;;;;;;;;;;;25.20;50.30;;;;;;491581;240;1158;-68
2021/09/15 02:45:54;;;;;;;;;;;25.10;50.30;;;;;;491571;240;2120;-68
2021/09/15 02:47:54;;;;;;;;;;;25.10;50.40;;;;;;491455;240;1162;-68
2021/09/15 02:49:56;;;;;;;;;;;25.20;50.30;;;;;;491596;240;1034;-69
2021/09/15 02:51:57;;;;;;;;;;;25.20;50.20;;;;;;491533;240;1220;-68
2021/09/15 02:53:59;;;;;;;;;;;25.20;50.20;;;;;;491665;240;969;-68
2021/09/15 02:56:00;;;;;;;;;;;25.20;50.20;;;;;;491591;240;1256;-68
2021/09/15 02:58:03;;;;;;;;;;;25.20;50.20;;;;;;491589;240;1164;-69
2021/09/15 03:00:02;;;;;;;;;;;25.20;50.20;;;;;;491581;240;1339;-68
2021/09/15 03:02:04;;;;;;;;;;;25.10;50.40;;;;;;491527;240;1109;-68
2021/09/15 03:04:05;;;;;;;;;;;25.10;50.30;;;;;;491477;240;1188;-69
2021/09/15 03:06:06;;;;;;;;;;;25.20;50.20;;;;;;491596;240;2124;-68
2021/09/15 03:08:08;;;;;;;;;;;25.20;50.30;;;;;;491608;240;1165;-68
2021/09/15 03:10:09;;;;;;;;;;;25.10;50.40;;;;;;491654;240;965;-68
2021/09/15 03:12:10;;;;;;;;;;;24.90;50.70;;;;;;491569;240;1143;-68
2021/09/15 03:14:12;;;;;;;;;;;25.00;50.50;;;;;;491626;240;1101;-68
2021/09/15 03:16:13;;;;;;;;;;;25.10;50.30;;;;;;491562;240;1187;-68
2021/09/15 03:18:14;;;;;;;;;;;25.20;49.90;;;;;;491485;240;1163;-68
2021/09/15 03:20:16;;;;;;;;;;;25.10;50.10;;;;;;491563;240;1194;-68
2021/09/15 03:22:17;;;;;;;;;;;25.10;50.30;;;;;;491540;240;1193;-68
2021/09/15 03:24:18;;;;;;;;;;;25.10;50.20;;;;;;491559;240;1058;-68
2021/09/15 03:26:20;;;;;;;;;;;25.10;50.30;;;;;;491492;240;2117;-68
2021/09/15 03:28:21;;;;;;;;;;;25.10;50.40;;;;;;491522;240;939;-68
2021/09/15 03:30:22;;;;;;;;;;;25.10;50.20;;;;;;491604;240;1218;-68
2021/09/15 03:32:24;;;;;;;;;;;25.10;50.30;;;;;;491516;240;975;-68
2021/09/15 03:34:25;;;;;;;;;;;25.20;50.10;;;;;;491511;240;1119;-68
2021/09/15 03:36:26;;;;;;;;;;;25.10;50.20;;;;;;491574;240;1346;-68
2021/09/15 03:38:28;;;;;;;;;;;25.00;50.50;;;;;;491627;240;1061;-69
2021/09/15 03:40:29;;;;;;;;;;;25.10;50.20;;;;;;491596;240;1028;-68
2021/09/15 03:42:30;;;;;;;;;;;25.10;50.30;;;;;;491556;240;1213;-68
2021/09/15 03:44:32;;;;;;;;;;;25.10;50.30;;;;;;491591;240;1159;-68
2021/09/15 03:46:33;;;;;;;;;;;25.00;50.40;;;;;;491476;240;2187;-68
2021/09/15 03:48:34;;;;;;;;;;;25.10;50.30;;;;;;491603;240;1117;-68
2021/09/15 03:50:35;;;;;;;;;;;25.10;50.30;;;;;;491552;240;1065;-68
2021/09/15 03:52:37;;;;;;;;;;;24.90;50.50;;;;;;491508;240;1115;-68
2021/09/15 03:54:38;;;;;;;;;;;25.10;50.20;;;;;;491614;240;983;-68
2021/09/15 03:56:40;;;;;;;;;;;25.00;50.50;;;;;;491495;240;1163;-68
2021/09/15 03:58:41;;;;;;;;;;;25.10;50.20;;;;;;491522;240;1119;-68
2021/09/15 04:00:42;;;;;;;;;;;24.90;50.70;;;;;;491495;240;1282;-68
2021/09/15 04:02:44;;;;;;;;;;;25.10;50.30;;;;;;491486;240;1050;-68
2021/09/15 04:04:45;;;;;;;;;;;25.10;50.30;;;;;;491487;240;972;-68
2021/09/15 04:06:46;;;;;;;;;;;25.00;50.20;;;;;;491573;240;2184;-68
2021/09/15 04:08:48;;;;;;;;;;;25.00;50.50;;;;;;491615;240;1159;-68
2021/09/15 04:10:49;;;;;;;;;;;24.80;50.70;;;;;;491615;240;952;-68
2021/09/15 04:12:50;;;;;;;;;;;25.00;50.40;;;;;;491565;240;1201;-68
2021/09/15 04:14:52;;;;;;;;;;;25.10;50.30;;;;;;490896;240;1218;-67
2021/09/15 04:16:53;;;;;;;;;;;24.90;50.50;;;;;;491491;242;1001;-68
2021/09/15 04:18:54;;;;;;;;;;;25.00;50.50;;;;;;491640;240;1036;-68
2021/09/15 04:20:56;;;;;;;;;;;25.00;50.40;;;;;;491598;240;956;-68
2021/09/15 04:22:57;;;;;;;;;;;24.90;50.50;;;;;;491492;240;1093;-68
2021/09/15 04:32:05;;;;;;;;;;;25.10;50.20;;;;;;491432;240;1151;-68
2021/09/15 04:34:06;;;;;;;;;;;25.00;50.30;;;;;;491433;240;1039;-68
2021/09/15 04:36:07;;;;;;;;;;;25.20;50.10;;;;;;491425;240;1348;-68
2021/09/15 04:38:09;;;;;;;;;;;25.10;50.00;;;;;;491392;240;1158;-68
2021/09/15 04:40:10;;;;;;;;;;;25.10;50.10;;;;;;491400;240;1063;-68
2021/09/15 04:42:11;;;;;;;;;;;25.10;50.20;;;;;;491357;240;1230;-68
2021/09/15 04:44:13;;;;;;;;;;;24.90;50.40;;;;;;491483;240;964;-68
2021/09/15 04:46:14;;;;;;;;;;;25.00;50.30;;;;;;491400;240;2183;-68
2021/09/15 04:48:15;;;;;;;;;;;25.00;50.40;;;;;;491314;240;1135;-68
2021/09/15 04:50:17;;;;;;;;;;;25.00;50.20;;;;;;491275;240;1254;-68
2021/09/15 04:52:18;;;;;;;;;;;25.00;50.50;;;;;;491316;240;1051;-68
2021/09/15 04:54:19;;;;;;;;;;;25.00;50.30;;;;;;491503;240;1268;-68
2021/09/15 04:56:21;;;;;;;;;;;25.00;50.40;;;;;;491316;240;1201;-68
2021/09/15 04:58:22;;;;;;;;;;;24.90;50.40;;;;;;491350;240;1200;-68
2021/09/15 05:00:23;;;;;;;;;;;25.10;50.20;;;;;;490872;240;1223;-68
2021/09/15 05:02:25;;;;;;;;;;;25.10;50.20;;;;;;491302;240;1206;-68
2021/09/15 05:04:26;;;;;;;;;;;25.10;50.30;;;;;;491193;240;974;-68
2021/09/15 05:06:28;;;;;;;;;;;25.10;50.20;;;;;;491255;240;2228;-68
2021/09/15 05:08:29;;;;;;;;;;;25.10;50.10;;;;;;491304;240;1054;-68
2021/09/15 05:10:30;;;;;;;;;;;25.00;50.20;;;;;;491340;240;1112;-68
2021/09/15 05:12:32;;;;;;;;;;;24.90;50.50;;;;;;491198;240;1194;-68
2021/09/15 05:14:33;;;;;;;;;;;25.10;50.40;;;;;;491239;240;1040;-68
2021/09/15 05:16:34;;;;;;;;;;;25.10;50.20;;;;;;491171;240;1399;-68
2021/09/15 05:18:36;;;;;;;;;;;25.10;50.10;;;;;;491159;240;1072;-68
2021/09/15 05:20:37;;;;;;;;;;;25.10;50.40;;;;;;491192;240;1084;-68
2021/09/15 05:22:38;;;;;;;;;;;25.10;50.30;;;;;;491196;240;1134;-68
2021/09/15 05:24:39;;;;;;;;;;;25.10;50.20;;;;;;491227;240;1056;-68
2021/09/15 05:26:41;;;;;;;;;;;25.10;50.30;;;;;;491125;240;2114;-68
2021/09/15 05:28:42;;;;;;;;;;;25.10;50.20;;;;;;491149;240;1189;-68
2021/09/15 05:30:43;;;;;;;;;;;25.20;50.30;;;;;;491122;240;1082;-68
2021/09/15 05:32:45;;;;;;;;;;;25.10;50.20;;;;;;491044;240;1234;-68
2021/09/15 05:34:46;;;;;;;;;;;25.00;50.40;;;;;;491003;240;1129;-68
2021/09/15 05:36:47;;;;;;;;;;;25.10;50.40;;;;;;490963;240;1228;-68
2021/09/15 05:38:49;;;;;;;;;;;25.10;50.40;;;;;;491086;240;1159;-68
2021/09/15 05:40:50;;;;;;;;;;;25.10;50.40;;;;;;491030;240;1145;-68
2021/09/15 05:42:51;;;;;;;;;;;25.20;50.30;;;;;;491137;240;1273;-68
2021/09/15 05:44:53;;;;;;;;;;;25.20;50.20;;;;;;491127;240;1005;-68
2021/09/15 05:46:54;;;;;;;;;;;25.10;50.30;;;;;;491101;240;2195;-68
2021/09/15 05:48:55;;;;;;;;;;;25.10;50.30;;;;;;491165;240;1035;-68
2021/09/15 05:50:57;;;;;;;;;;;25.10;50.50;;;;;;491010;240;1419;-68
2021/09/15 05:52:58;;;;;;;;;;;25.10;50.40;;;;;;490937;240;1167;-68
2021/09/15 05:54:59;;;;;;;;;;;25.10;50.50;;;;;;491085;240;1066;-68
2021/09/15 05:57:01;;;;;;;;;;;25.10;50.30;;;;;;491021;240;1165;-68
2021/09/15 05:59:02;;;;;;;;;;;25.20;50.20;;;;;;491253;240;1163;-68
2021/09/15 06:01:06;;;;;;;;;;;25.20;50.20;;;;;;491169;240;1023;-68
2021/09/15 06:03:04;;;;;;;;;;;25.20;50.10;;;;;;491118;240;1419;-68
2021/09/15 06:05:06;;;;;;;;;;;25.20;50.30;;;;;;490687;240;1048;-68
2021/09/15 06:07:07;;;;;;;;;;;25.20;50.30;;;;;;490671;240;2185;-68
2021/09/15 06:09:08;;;;;;;;;;;25.20;50.20;;;;;;490575;240;1036;-68
2021/09/15 06:11:10;;;;;;;;;;;25.20;50.20;;;;;;490614;240;1047;-68
2021/09/15 06:13:11;;;;;;;;;;;25.20;50.10;;;;;;490619;240;1269;-68
2021/09/15 06:15:13;;;;;;;;;;;25.30;50.10;;;;;;490646;240;1071;-68
2021/09/15 06:17:14;;;;;;;;;;;25.20;50.10;;;;;;490729;240;1093;-68
2021/09/15 06:19:15;;;;;;;;;;;25.20;50.30;;;;;;490816;240;1062;-68
2021/09/15 06:21:17;;;;;;;;;;;25.20;50.30;;;;;;490647;240;1151;-68
2021/09/15 06:23:18;;;;;;;;;;;25.20;50.20;;;;;;490855;240;1016;-68
2021/09/15 06:25:22;;;;;;;;;;;25.20;50.30;;;;;;490790;240;1033;-68
2021/09/15 06:27:21;;;;;;;;;;;25.20;50.30;;;;;;491146;240;2113;-68
2021/09/15 06:29:22;;;;;;;;;;;25.20;50.40;;;;;;491197;240;1172;-68
2021/09/15 06:31:24;;;;;;;;;;;25.20;50.40;;;;;;490759;240;1314;-68
2021/09/15 06:33:25;;;;;;;;;;;25.20;50.30;;;;;;491588;240;1203;-68
2021/09/15 06:35:26;;;;;;;;;;;25.20;50.20;;;;;;491607;240;1295;-68
2021/09/15 06:37:27;;;;;;;;;;;25.20;50.30;;;;;;490993;240;1131;-68
2021/09/15 06:39:29;;;;;;;;;;;25.30;50.30;;;;;;491596;240;1270;-68
2021/09/15 06:41:30;;;;;;;;;;;25.40;50.10;;;;;;491382;240;1227;-68
2021/09/15 06:43:31;;;;;;;;;;;25.20;50.40;;;;;;491231;240;1043;-68
2021/09/15 06:45:32;;;;;;;;;;;25.20;50.50;;;;;;491445;240;781;-68
2021/09/15 06:47:34;;;;;;;;;;;25.20;50.50;;;;;;490743;240;2180;-68
2021/09/15 06:49:35;;;;;;;;;;;25.10;50.50;;;;;;491289;240;729;-68
2021/09/15 06:51:36;;;;;;;;;;;25.20;50.50;;;;;;490695;240;1422;-68
2021/09/15 06:53:38;;;;;;;;;;;25.20;50.50;;;;;;491315;240;791;-68
2021/09/15 06:55:39;;;;;;;;;;;25.20;50.40;;;;;;490830;240;775;-68
2021/09/15 06:57:40;;;;;;;;;;;25.20;50.40;;;;;;491202;240;1305;-68
2021/09/15 06:59:42;;;;;;;;;;;25.20;50.50;;;;;;490519;240;1094;-68
2021/09/15 07:01:43;;;;;;;;;;;25.10;50.60;;;;;;491039;240;1187;-68
2021/09/15 07:03:44;;;;;;;;;;;25.20;50.60;;;;;;491339;240;1024;-68
2021/09/15 07:05:46;;;;;;;;;;;25.20;50.50;;;;;;491232;240;753;-68
2021/09/15 07:07:47;;;;;;;;;;;25.20;50.50;;;;;;491210;240;2184;-68
2021/09/15 07:09:48;;;;;;;;;;;25.20;50.70;;;;;;490830;240;1325;-68
2021/09/15 07:11:50;;;;;;;;;;;25.20;50.60;;;;;;491140;240;1124;-68
2021/09/15 07:13:51;;;;;;;;;;;25.10;50.80;;;;;;490265;240;1146;-68
2021/09/15 07:15:54;;;;;;;;;;;25.20;50.60;;;;;;490376;240;813;-68
2021/09/15 07:17:54;;;;;;;;;;;25.20;50.70;;;;;;490632;240;2060;-68
2021/09/15 07:19:55;;;;;;;;;;;25.20;50.60;;;;;;491024;240;791;-68
2021/09/15 07:21:56;;;;;;;;;;;25.20;50.60;;;;;;491021;240;1381;-68
2021/09/15 07:23:58;;;;;;;;;;;25.20;50.60;;;;;;490662;240;781;-68
2021/09/15 07:25:59;;;;;;;;;;;25.20;50.60;;;;;;491178;240;794;-68
2021/09/15 07:28:01;;;;;;;;;;;25.20;50.70;;;;;;491139;240;2183;-68
2021/09/15 07:30:02;;;;;;;;;;;25.20;50.60;;;;;;490745;240;1231;-68
2021/09/15 07:32:03;;;;;;;;;;;25.20;50.60;;;;;;491088;240;1418;-68
2021/09/15 07:34:04;;;;;;;;;;;25.30;50.60;;;;;;491064;240;970;-68
2021/09/15 07:36:06;;;;;;;;;;;25.20;50.70;;;;;;490960;240;1200;-68
2021/09/15 07:38:07;;;;;;;;;;;25.10;50.80;;;;;;490895;240;1123;-68
2021/09/15 07:40:08;;;;;;;;;;;25.10;50.80;;;;;;490424;240;794;-68
2021/09/15 07:42:10;;;;;;;;;;;25.10;50.80;;;;;;490697;240;1034;-68
2021/09/15 07:44:11;;;;;;;;;;;25.10;50.90;;;;;;490754;240;1080;-68
2021/09/15 07:46:12;;;;;;;;;;;25.10;50.80;;;;;;490461;240;1385;-68
2021/09/15 07:48:13;;;;;;;;;;;25.10;50.90;;;;;;490970;240;2199;-68
2021/09/15 07:50:15;;;;;;;;;;;25.10;50.80;;;;;;490479;240;1049;-68
2021/09/15 07:52:16;;;;;;;;;;;25.00;50.90;;;;;;490848;240;1094;-68
2021/09/15 07:54:17;;;;;;;;;;;25.10;51.00;;;;;;490359;240;1135;-68
2021/09/15 07:56:19;;;;;;;;;;;25.20;50.80;;;;;;490348;240;997;-68
2021/09/15 07:58:20;;;;;;;;;;;25.00;50.90;;;;;;490301;240;749;-68
2021/09/15 08:00:22;;;;;;;;;;;25.10;51.00;;;;;;490374;240;1118;-68
2021/09/15 08:02:23;;;;;;;;;;;25.10;51.10;;;;;;490632;240;1444;-68
2021/09/15 08:04:24;;;;;;;;;;;25.00;51.20;;;;;;490858;240;762;-68
2021/09/15 08:06:26;;;;;;;;;;;25.10;51.20;;;;;;490686;240;1301;-68
2021/09/15 08:08:27;;;;;;;;;;;25.00;51.20;;;;;;490912;240;2179;-68
2021/09/15 08:10:28;;;;;;;;;;;25.10;51.10;;;;;;490522;240;766;-68
2021/09/15 08:12:30;;;;;;;;;;;25.10;51.20;;;;;;490882;240;765;-68
2021/09/15 08:14:31;;;;;;;;;;;25.10;51.10;;;;;;490456;240;1065;-68
2021/09/15 08:16:32;;;;;;;;;;;25.00;51.40;;;;;;490291;240;1095;-68
2021/09/15 08:18:33;;;;;;;;;;;25.00;51.40;;;;;;490563;240;972;-68
2021/09/15 08:20:35;;;;;;;;;;;25.10;51.20;;;;;;491005;240;1399;-68
2021/09/15 08:22:36;;;;;;;;;;;25.10;51.30;;;;;;490411;240;1032;-68
2021/09/15 08:24:37;;;;;;;;;;;25.20;51.10;;;;;;490977;240;784;-68
2021/09/15 08:26:39;;;;;;;;;;;25.10;51.10;;;;;;490042;240;1129;-68
2021/09/15 08:28:40;;;;;;;;;;;25.30;51.00;;;;;;490634;240;2192;-68
2021/09/15 08:30:41;;;;;;;;;;;25.20;51.10;;;;;;490534;240;1400;-68
2021/09/15 08:32:43;;;;;;;;;;;25.10;51.30;;;;;;490858;240;1203;-68
2021/09/15 08:34:44;;;;;;;;;;;25.20;51.20;;;;;;490748;240;765;-68
2021/09/15 08:36:45;;;;;;;;;;;25.30;51.10;;;;;;490623;240;1208;-68
2021/09/15 08:38:47;;;;;;;;;;;25.20;51.10;;;;;;490503;240;1034;-68
2021/09/15 08:40:48;;;;;;;;;;;25.20;51.20;;;;;;490937;240;1452;-68
2021/09/15 08:42:49;;;;;;;;;;;25.40;51.00;;;;;;490915;240;1042;-68
2021/09/15 08:44:51;;;;;;;;;;;25.40;51.00;;;;;;490642;240;1024;-68
2021/09/15 08:46:52;;;;;;;;;;;25.40;51.00;;;;;;490708;240;1191;-68
2021/09/15 08:48:53;;;;;;;;;;;25.40;50.90;;;;;;491129;240;2194;-68
2021/09/15 08:50:54;;;;;;;;;;;25.50;50.90;;;;;;490597;240;1385;-68
2021/09/15 08:52:56;;;;;;;;;;;25.40;51.00;;;;;;490999;240;982;-68
2021/09/15 08:54:57;;;;;;;;;;;25.30;51.20;;;;;;491059;240;761;-68
2021/09/15 08:56:58;;;;;;;;;;;25.40;51.20;;;;;;490530;240;1104;-68
2021/09/15 08:59:00;;;;;;;;;;;25.30;51.30;;;;;;491035;240;754;-68
2021/09/15 09:01:01;;;;;;;;;;;25.30;51.40;;;;;;490564;240;1407;-68
2021/09/15 09:03:02;;;;;;;;;;;25.40;51.30;;;;;;490292;240;1016;-68
2021/09/15 09:05:04;;;;;;;;;;;25.40;51.30;;;;;;490225;240;871;-68
2021/09/15 09:07:05;;;;;;;;;;;25.40;51.30;;;;;;490258;240;2203;-68
2021/09/15 09:09:06;;;;;;;;;;;25.40;51.10;;;;;;491098;240;772;-68
2021/09/15 09:11:08;;;;;;;;;;;25.50;51.10;;;;;;491173;240;1409;-68
2021/09/15 09:13:09;;;;;;;;;;;24.50;52.80;;;;;;490618;240;1119;-68
2021/09/15 09:15:10;;;;;;;;;;;23.80;54.80;;;;;;490435;240;1058;-68
2021/09/15 09:17:12;;;;;;;;;;;23.50;56.00;;;;;;490265;240;1426;-68
2021/09/15 09:19:13;;;;;;;;;;;23.30;56.70;;;;;;490846;240;669;-68
2021/09/15 09:21:14;;;;;;;;;;;23.10;57.20;;;;;;490726;240;1406;-68
2021/09/15 09:23:15;;;;;;;;;;;23.10;57.40;;;;;;490779;240;781;-68
2021/09/15 09:25:17;;;;;;;;;;;23.10;57.50;;;;;;490639;240;800;-68
2021/09/15 09:27:18;;;;;;;;;;;23.10;57.40;;;;;;490240;240;2195;-68
2021/09/15 09:29:21;;;;;;;;;;;23.10;57.30;;;;;;490860;240;753;-68
2021/09/15 09:31:21;;;;;;;;;;;23.20;57.40;;;;;;490452;240;1302;-68
2021/09/15 09:33:22;;;;;;;;;;;23.10;57.60;;;;;;490314;240;1188;-68
2021/09/15 09:35:24;;;;;;;;;;;23.10;57.80;;;;;;490724;240;868;-68
2021/09/15 09:37:25;;;;;;;;;;;23.00;57.80;;;;;;490127;240;1050;-68
2021/09/15 09:39:26;;;;;;;;;;;23.00;57.80;;;;;;490887;240;806;-68
2021/09/15 09:41:27;;;;;;;;;;;23.00;57.80;;;;;;490423;240;1474;-68
2021/09/15 09:43:29;;;;;;;;;;;23.00;58.00;;;;;;490879;240;967;-68
2021/09/15 09:45:30;;;;;;;;;;;23.00;58.10;;;;;;490402;240;1067;-68
2021/09/15 09:47:31;;;;;;;;;;;22.90;58.10;;;;;;490729;240;2195;-68
2021/09/15 09:49:33;;;;;;;;;;;22.90;58.20;;;;;;490875;240;759;-68
2021/09/15 09:51:34;;;;;;;;;;;22.90;58.30;;;;;;490836;240;1106;-68
2021/09/15 09:53:35;;;;;;;;;;;22.90;58.20;;;;;;490441;240;789;-68
2021/09/15 09:55:37;;;;;;;;;;;22.90;58.20;;;;;;490778;240;745;-68
2021/09/15 09:57:38;;;;;;;;;;;22.90;58.20;;;;;;490461;240;856;-68
2021/09/15 09:59:39;;;;;;;;;;;22.90;58.20;;;;;;490880;240;759;-68
2021/09/15 10:01:41;;;;;;;;;;;23.00;58.20;;;;;;490529;240;1102;-68
2021/09/15 10:03:42;;;;;;;;;;;23.00;58.30;;;;;;490473;240;1174;-70
2021/09/15 10:05:43;;;;;;;;;;;23.00;58.40;;;;;;490792;240;810;-68
2021/09/15 10:07:45;;;;;;;;;;;22.90;58.30;;;;;;490813;240;2184;-68
2021/09/15 10:09:46;;;;;;;;;;;23.00;58.40;;;;;;491011;240;769;-68
2021/09/15 10:11:47;;;;;;;;;;;22.90;58.30;;;;;;490954;240;1131;-68
2021/09/15 10:13:49;;;;;;;;;;;22.90;58.40;;;;;;490402;240;1051;-68
2021/09/15 10:15:51;;;;;;;;;;;23.00;58.30;;;;;;489887;240;1144;-68
2021/09/15 10:17:51;;;;;;;;;;;23.00;58.20;;;;;;490389;240;1372;-68
2021/09/15 10:19:52;;;;;;;;;;;23.20;57.80;;;;;;490880;240;780;-68
2021/09/15 10:21:54;;;;;;;;;;;23.30;57.20;;;;;;490740;240;1150;-68
2021/09/15 10:23:55;;;;;;;;;;;23.40;57.00;;;;;;490807;240;746;-68
2021/09/15 10:25:56;;;;;;;;;;;23.70;56.60;;;;;;490913;240;1457;-68
2021/09/15 10:27:58;;;;;;;;;;;23.80;56.20;;;;;;490375;240;2196;-68
2021/09/15 10:29:59;;;;;;;;;;;23.70;56.10;;;;;;490787;240;786;-68
2021/09/15 10:32:00;;;;;;;;;;;23.50;56.90;;;;;;490061;240;1055;-68
2021/09/15 10:34:02;;;;;;;;;;;23.40;57.30;;;;;;490233;240;834;-68
2021/09/15 10:36:03;;;;;;;;;;;23.40;57.10;;;;;;490149;240;1466;-68
2021/09/15 10:38:04;;;;;;;;;;;23.30;57.50;;;;;;490690;240;1045;-68
2021/09/15 10:40:06;;;;;;;;;;;23.30;57.20;;;;;;490795;240;742;-68
2021/09/15 10:42:07;;;;;;;;;;;23.20;57.60;;;;;;490771;240;967;-68
2021/09/15 10:44:09;;;;;;;;;;;23.40;57.20;;;;;;490459;240;774;-68
2021/09/15 10:46:10;;;;;;;;;;;23.30;57.50;;;;;;490608;240;1396;-68
2021/09/15 10:48:11;;;;;;;;;;;23.20;57.50;;;;;;490523;240;2172;-68
2021/09/15 10:50:12;;;;;;;;;;;23.10;57.80;;;;;;491065;240;736;-68
2021/09/15 10:52:14;;;;;;;;;;;23.30;57.70;;;;;;490438;240;973;-68
2021/09/15 10:54:15;;;;;;;;;;;23.20;57.70;;;;;;491031;240;1334;-68
2021/09/15 10:56:16;;;;;;;;;;;23.20;57.60;;;;;;490875;240;1603;-68
2021/09/15 10:58:18;;;;;;;;;;;23.30;57.40;;;;;;491066;240;727;-68
2021/09/15 11:00:21;;;;;;;;;;;23.30;57.40;;;;;;490954;240;849;-68
2021/09/15 11:02:20;;;;;;;;;;;23.40;57.20;;;;;;490628;240;1335;-68
2021/09/15 11:04:22;;;;;;;;;;;23.40;57.20;;;;;;490960;240;794;-68
2021/09/15 11:06:23;;;;;;;;;;;23.40;57.30;;;;;;490726;240;1026;-68
2021/09/15 11:08:24;;;;;;;;;;;23.40;57.40;;;;;;490835;240;2172;-68
2021/09/15 11:10:26;;;;;;;;;;;23.50;57.30;;;;;;490462;240;1119;-68
2021/09/15 11:12:27;;;;;;;;;;;23.40;57.90;;;;;;490802;240;1047;-68
2021/09/15 11:14:28;;;;;;;;;;;23.20;58.60;;;;;;490784;240;805;-68
2021/09/15 11:16:30;;;;;;;;;;;23.10;59.30;;;;;;490546;240;1130;-68
2021/09/15 11:18:31;;;;;;;;;;;23.10;59.60;;;;;;490734;240;815;-68
2021/09/15 11:20:32;;;;;;;;;;;23.20;59.60;;;;;;490188;240;1365;-68
2021/09/15 11:22:34;;;;;;;;;;;23.10;60.40;;;;;;490198;240;1041;-68
2021/09/15 11:24:36;;;;;;;;;;;22.90;60.70;;;;;;490746;240;769;-68
2021/09/15 11:26:36;;;;;;;;;;;22.90;61.00;;;;;;490667;240;1578;-68
2021/09/15 11:28:37;;;;;;;;;;;22.90;61.10;;;;;;490809;240;2188;-68
2021/09/15 11:30:39;;;;;;;;;;;22.90;61.10;;;;;;490834;240;1405;-68
2021/09/15 11:32:40;;;;;;;;;;;22.90;61.50;;;;;;490317;240;1091;-68
2021/09/15 11:34:42;;;;;;;;;;;22.90;61.70;;;;;;490863;240;802;-68
2021/09/15 11:36:43;;;;;;;;;;;22.90;61.70;;;;;;490699;240;1162;-68
2021/09/15 11:38:44;;;;;;;;;;;22.90;61.60;;;;;;490856;240;639;-68
2021/09/15 11:40:45;;;;;;;;;;;22.80;61.70;;;;;;490780;240;1342;-68
2021/09/15 11:42:47;;;;;;;;;;;22.90;61.70;;;;;;490723;240;792;-68
2021/09/15 11:44:48;;;;;;;;;;;22.80;61.60;;;;;;490848;240;712;-68
2021/09/15 11:46:49;;;;;;;;;;;22.80;61.60;;;;;;490553;240;1085;-68
2021/09/15 11:48:51;;;;;;;;;;;22.80;61.80;;;;;;490987;240;2187;-68
2021/09/15 11:50:52;;;;;;;;;;;22.80;61.80;;;;;;490387;240;1422;-68
2021/09/15 11:52:55;;;;;;;;;;;22.90;61.30;;;;;;490904;240;753;-68
2021/09/15 11:54:58;;;;;;;;;;;22.90;61.10;;;;;;490772;240;1323;-68
2021/09/15 11:57:05;;;;;;;;;;;22.80;61.10;;;;;;490687;240;1397;-68
2021/09/15 11:59:06;;;;;;;;;;;22.90;60.70;;;;;;490836;240;1189;-68
2021/09/15 12:01:07;;;;;;;;;;;23.00;60.60;;;;;;490869;240;836;-68
2021/09/15 12:03:08;;;;;;;;;;;23.10;60.20;;;;;;490399;240;1103;-68
2021/09/15 12:05:09;;;;;;;;;;;23.10;60.00;;;;;;490856;240;726;-68